sensor_id;sensor_type;location;lat;lon;timestamp;pressure;altitude;pressure_sealevel;temperature;humidity
69153;BME280;56261;51.580;4.578;2023-09-12T00:00:44;101441.75;;;18.48;100.00
69153;BME280;56261;51.580;4.578;2023-09-12T00:03:11;101435.72;;;18.46;100.00
69153;BME280;56261;51.580;4.578;2023-09-12T00:05:36;101442.19;;;18.45;100.00
69153;BME280;56261;51.580;4.578;2023-09-12T00:08:02;101438.44;;;18.39;100.00
69153;BME280;56261;51.580;4.578;2023-09-12T00:10:28;101445.06;;;18.37;100.00
69153;BME280;56261;51.580;4.578;2023-09-12T00:12:54;101435.94;;;18.38;100.00
69153;BME280;56261;51.580;4.578;2023-09-12T00:15:20;101430.94;;;18.41;100.00
69153;BME280;56261;51.580;4.578;2023-09-12T00:17:46;101435.72;;;18.39;100.00
69153;BME280;56261;51.580;4.578;2023-09-12T00:20:11;101432.81;;;18.34;100.00
69153;BME280;56261;51.580;4.578;2023-09-12T00:22:36;101435.53;;;18.34;100.00
69153;BME280;56261;51.580;4.578;2023-09-12T00:25:02;101435.50;;;18.28;100.00
69153;BME280;56261;51.580;4.578;2023-09-12T00:27:28;101438.84;;;18.30;100.00
69153;BME280;56261;51.580;4.578;2023-09-12T00:29:53;101438.66;;;18.31;100.00
69153;BME280;56261;51.580;4.578;2023-09-12T00:32:18;101426.59;;;18.27;100.00
69153;BME280;56261;51.580;4.578;2023-09-12T00:34:44;101424.50;;;18.22;100.00
69153;BME280;56261;51.580;4.578;2023-09-12T00:37:09;101422.81;;;18.15;100.00
69153;BME280;56261;51.580;4.578;2023-09-12T00:39:35;101424.69;;;18.14;100.00
69153;BME280;56261;51.580;4.578;2023-09-12T00:42:00;101428.84;;;18.10;100.00
69153;BME280;56261;51.580;4.578;2023-09-12T00:44:25;101432.59;;;18.16;100.00
69153;BME280;56261;51.580;4.578;2023-09-12T00:46:52;101430.28;;;18.13;100.00
69153;BME280;56261;51.580;4.578;2023-09-12T00:49:18;101435.47;;;18.08;100.00
69153;BME280;56261;51.580;4.578;2023-09-12T00:51:47;101429.88;;;18.09;100.00
69153;BME280;56261;51.580;4.578;2023-09-12T00:54:14;101423.88;;;18.14;100.00
69153;BME280;56261;51.580;4.578;2023-09-12T00:56:39;101419.72;;;18.11;100.00
69153;BME280;56261;51.580;4.578;2023-09-12T00:59:05;101425.75;;;18.13;100.00
69153;BME280;56261;51.580;4.578;2023-09-12T01:01:31;101423.44;;;18.10;100.00
69153;BME280;56261;51.580;4.578;2023-09-12T01:03:57;101425.50;;;18.08;100.00
69153;BME280;56261;51.580;4.578;2023-09-12T01:06:24;101423.44;;;18.03;100.00
69153;BME280;56261;51.580;4.578;2023-09-12T01:08:52;101410.34;;;18.00;100.00
69153;BME280;56261;51.580;4.578;2023-09-12T01:11:17;101409.53;;;18.00;100.00
69153;BME280;56261;51.580;4.578;2023-09-12T01:13:43;101417.00;;;17.98;100.00
69153;BME280;56261;51.580;4.578;2023-09-12T01:16:08;101406.38;;;17.96;100.00
69153;BME280;56261;51.580;4.578;2023-09-12T01:18:34;101412.84;;;18.02;100.00
69153;BME280;56261;51.580;4.578;2023-09-12T01:21:28;101412.44;;;18.05;100.00
69153;BME280;56261;51.580;4.578;2023-09-12T01:24:22;101410.56;;;18.12;100.00
69153;BME280;56261;51.580;4.578;2023-09-12T01:29:43;101409.56;;;18.20;100.00
69153;BME280;56261;51.580;4.578;2023-09-12T01:32:10;101406.00;;;18.26;100.00
69153;BME280;56261;51.580;4.578;2023-09-12T01:34:36;101417.03;;;18.24;100.00
69153;BME280;56261;51.580;4.578;2023-09-12T01:37:01;101416.19;;;18.37;100.00
69153;BME280;56261;51.580;4.578;2023-09-12T01:39:26;101409.97;;;18.37;100.00
69153;BME280;56261;51.580;4.578;2023-09-12T01:41:53;101409.56;;;18.40;100.00
69153;BME280;56261;51.580;4.578;2023-09-12T01:44:20;101416.19;;;18.44;100.00
69153;BME280;56261;51.580;4.578;2023-09-12T01:46:50;101420.56;;;18.52;100.00
69153;BME280;56261;51.580;4.578;2023-09-12T01:49:19;101414.34;;;18.58;100.00
69153;BME280;56261;51.580;4.578;2023-09-12T01:51:46;101415.78;;;18.60;100.00
69153;BME280;56261;51.580;4.578;2023-09-12T01:54:12;101417.25;;;18.63;100.00
69153;BME280;56261;51.580;4.578;2023-09-12T01:56:39;101413.09;;;18.67;100.00
69153;BME280;56261;51.580;4.578;2023-09-12T01:59:05;101405.78;;;18.74;100.00
69153;BME280;56261;51.580;4.578;2023-09-12T02:01:31;101406.41;;;18.76;100.00
69153;BME280;56261;51.580;4.578;2023-09-12T02:03:57;101411.66;;;18.78;100.00
69153;BME280;56261;51.580;4.578;2023-09-12T02:06:22;101408.72;;;18.79;100.00
69153;BME280;56261;51.580;4.578;2023-09-12T02:08:48;101407.06;;;18.78;100.00
69153;BME280;56261;51.580;4.578;2023-09-12T02:11:14;101417.66;;;18.73;100.00
69153;BME280;56261;51.580;4.578;2023-09-12T02:13:39;101403.94;;;18.81;100.00
69153;BME280;56261;51.580;4.578;2023-09-12T02:16:05;101402.28;;;18.87;100.00
69153;BME280;56261;51.580;4.578;2023-09-12T02:18:30;101415.34;;;18.77;100.00
69153;BME280;56261;51.580;4.578;2023-09-12T02:20:55;101408.09;;;18.77;100.00
69153;BME280;56261;51.580;4.578;2023-09-12T02:23:21;101404.16;;;18.80;100.00
69153;BME280;56261;51.580;4.578;2023-09-12T02:25:46;101402.28;;;18.80;100.00
69153;BME280;56261;51.580;4.578;2023-09-12T02:28:11;101395.63;;;18.90;100.00
69153;BME280;56261;51.580;4.578;2023-09-12T02:30:40;101401.44;;;18.86;100.00
69153;BME280;56261;51.580;4.578;2023-09-12T02:33:06;101409.34;;;18.88;100.00
69153;BME280;56261;51.580;4.578;2023-09-12T02:35:31;101410.81;;;18.77;100.00
69153;BME280;56261;51.580;4.578;2023-09-12T02:37:57;101402.06;;;18.82;100.00
69153;BME280;56261;51.580;4.578;2023-09-12T02:40:22;101400.19;;;18.76;100.00
69153;BME280;56261;51.580;4.578;2023-09-12T02:42:47;101401.00;;;18.76;100.00
69153;BME280;56261;51.580;4.578;2023-09-12T02:45:13;101394.16;;;18.74;100.00
69153;BME280;56261;51.580;4.578;2023-09-12T02:47:38;101385.22;;;18.86;100.00
69153;BME280;56261;51.580;4.578;2023-09-12T02:50:04;101390.22;;;18.83;100.00
69153;BME280;56261;51.580;4.578;2023-09-12T02:52:29;101386.28;;;18.79;100.00
69153;BME280;56261;51.580;4.578;2023-09-12T02:54:55;101383.38;;;18.80;100.00
69153;BME280;56261;51.580;4.578;2023-09-12T02:57:20;101391.03;;;18.77;100.00
69153;BME280;56261;51.580;4.578;2023-09-12T02:59:46;101383.34;;;18.74;100.00
69153;BME280;56261;51.580;4.578;2023-09-12T03:02:12;101390.03;;;18.64;100.00
69153;BME280;56261;51.580;4.578;2023-09-12T03:04:37;101376.72;;;18.56;100.00
69153;BME280;56261;51.580;4.578;2023-09-12T03:07:03;101387.94;;;18.60;100.00
69153;BME280;56261;51.580;4.578;2023-09-12T03:09:28;101381.06;;;18.57;100.00
69153;BME280;56261;51.580;4.578;2023-09-12T03:11:53;101386.09;;;18.47;100.00
69153;BME280;56261;51.580;4.578;2023-09-12T03:14:19;101377.16;;;18.46;100.00
69153;BME280;56261;51.580;4.578;2023-09-12T03:16:44;101371.13;;;18.51;100.00
69153;BME280;56261;51.580;4.578;2023-09-12T03:19:09;101381.06;;;18.51;100.00
69153;BME280;56261;51.580;4.578;2023-09-12T03:21:35;101379.63;;;18.48;100.00
69153;BME280;56261;51.580;4.578;2023-09-12T03:24:00;101386.91;;;18.48;100.00
69153;BME280;56261;51.580;4.578;2023-09-12T03:26:26;101391.88;;;18.51;100.00
69153;BME280;56261;51.580;4.578;2023-09-12T03:28:51;101387.34;;;18.38;100.00
69153;BME280;56261;51.580;4.578;2023-09-12T03:31:18;101377.97;;;18.34;100.00
69153;BME280;56261;51.580;4.578;2023-09-12T03:33:43;101380.69;;;18.40;100.00
69153;BME280;56261;51.580;4.578;2023-09-12T03:36:15;101381.69;;;18.39;100.00
69153;BME280;56261;51.580;4.578;2023-09-12T03:38:40;101387.72;;;18.35;100.00
69153;BME280;56261;51.580;4.578;2023-09-12T03:41:06;101385.25;;;18.33;100.00
69153;BME280;56261;51.580;4.578;2023-09-12T03:43:33;101387.34;;;18.31;100.00
69153;BME280;56261;51.580;4.578;2023-09-12T03:45:58;101384.22;;;18.28;100.00
69153;BME280;56261;51.580;4.578;2023-09-12T03:48:24;101389.81;;;18.33;100.00
69153;BME280;56261;51.580;4.578;2023-09-12T03:50:49;101387.34;;;18.31;100.00
69153;BME280;56261;51.580;4.578;2023-09-12T03:53:15;101393.56;;;18.32;100.00
69153;BME280;56261;51.580;4.578;2023-09-12T03:55:41;101382.75;;;18.25;100.00
69153;BME280;56261;51.580;4.578;2023-09-12T03:58:07;101383.56;;;18.25;100.00
69153;BME280;56261;51.580;4.578;2023-09-12T04:00:32;101391.69;;;18.32;100.00
69153;BME280;56261;51.580;4.578;2023-09-12T04:02:57;101402.28;;;18.27;100.00
69153;BME280;56261;51.580;4.578;2023-09-12T04:05:23;101390.22;;;18.23;100.00
69153;BME280;56261;51.580;4.578;2023-09-12T04:07:48;101391.28;;;18.22;100.00
69153;BME280;56261;51.580;4.578;2023-09-12T04:10:14;101391.28;;;18.29;100.00
69153;BME280;56261;51.580;4.578;2023-09-12T04:12:39;101388.97;;;18.25;100.00
69153;BME280;56261;51.580;4.578;2023-09-12T04:15:05;101386.47;;;18.24;100.00
69153;BME280;56261;51.580;4.578;2023-09-12T04:17:31;101385.25;;;18.27;100.00
69153;BME280;56261;51.580;4.578;2023-09-12T04:19:56;101387.31;;;18.18;100.00
69153;BME280;56261;51.580;4.578;2023-09-12T04:22:22;101381.28;;;18.16;100.00
69153;BME280;56261;51.580;4.578;2023-09-12T04:24:47;101384.63;;;18.18;100.00
69153;BME280;56261;51.580;4.578;2023-09-12T04:27:13;101387.31;;;18.24;100.00
69153;BME280;56261;51.580;4.578;2023-09-12T04:29:38;101385.25;;;18.20;100.00
69153;BME280;56261;51.580;4.578;2023-09-12T04:32:05;101389.41;;;18.29;100.00
69153;BME280;56261;51.580;4.578;2023-09-12T04:34:31;101381.94;;;18.31;100.00
69153;BME280;56261;51.580;4.578;2023-09-12T04:36:56;101375.28;;;18.40;100.00
69153;BME280;56261;51.580;4.578;2023-09-12T04:39:22;101377.78;;;18.35;100.00
69153;BME280;56261;51.580;4.578;2023-09-12T04:41:47;101378.81;;;18.41;100.00
69153;BME280;56261;51.580;4.578;2023-09-12T04:44:13;101379.63;;;18.35;100.00
69153;BME280;56261;51.580;4.578;2023-09-12T04:46:38;101374.22;;;18.35;100.00
69153;BME280;56261;51.580;4.578;2023-09-12T04:49:03;101376.53;;;18.38;100.00
69153;BME280;56261;51.580;4.578;2023-09-12T04:51:29;101378.38;;;18.37;100.00
69153;BME280;56261;51.580;4.578;2023-09-12T04:53:54;101378.81;;;18.41;100.00
69153;BME280;56261;51.580;4.578;2023-09-12T04:56:20;101383.38;;;18.47;100.00
69153;BME280;56261;51.580;4.578;2023-09-12T04:58:45;101376.72;;;18.50;100.00
69153;BME280;56261;51.580;4.578;2023-09-12T05:01:11;101372.78;;;18.52;100.00
69153;BME280;56261;51.580;4.578;2023-09-12T05:03:36;101373.41;;;18.54;100.00
69153;BME280;56261;51.580;4.578;2023-09-12T05:06:02;101376.28;;;18.53;100.00
69153;BME280;56261;51.580;4.578;2023-09-12T05:08:29;101369.88;;;18.54;100.00
69153;BME280;56261;51.580;4.578;2023-09-12T05:10:54;101373.19;;;18.49;100.00
69153;BME280;56261;51.580;4.578;2023-09-12T05:13:19;101369.25;;;18.45;100.00
69153;BME280;56261;51.580;4.578;2023-09-12T05:15:46;101369.88;;;18.54;100.00
69153;BME280;56261;51.580;4.578;2023-09-12T05:18:12;101372.56;;;18.47;100.00
69153;BME280;56261;51.580;4.578;2023-09-12T05:20:37;101369.69;;;18.42;100.00
69153;BME280;56261;51.580;4.578;2023-09-12T05:23:03;101374.03;;;18.43;100.00
69153;BME280;56261;51.580;4.578;2023-09-12T05:25:28;101368.19;;;18.46;100.00
69153;BME280;56261;51.580;4.578;2023-09-12T05:27:54;101375.47;;;18.45;100.00
69153;BME280;56261;51.580;4.578;2023-09-12T05:30:19;101374.66;;;18.45;100.00
69153;BME280;56261;51.580;4.578;2023-09-12T05:32:45;101372.56;;;18.47;100.00
69153;BME280;56261;51.580;4.578;2023-09-12T05:35:10;101384.00;;;18.42;100.00
69153;BME280;56261;51.580;4.578;2023-09-12T05:37:35;101372.56;;;18.40;100.00
69153;BME280;56261;51.580;4.578;2023-09-12T05:40:01;101374.84;;;18.43;100.00
69153;BME280;56261;51.580;4.578;2023-09-12T05:42:26;101373.84;;;18.31;100.00
69153;BME280;56261;51.580;4.578;2023-09-12T05:44:52;101373.19;;;18.49;100.00
69153;BME280;56261;51.580;4.578;2023-09-12T05:47:20;101367.19;;;18.40;100.00
69153;BME280;56261;51.580;4.578;2023-09-12T05:49:46;101374.84;;;18.50;100.00
69153;BME280;56261;51.580;4.578;2023-09-12T05:52:11;101375.91;;;18.49;100.00
69153;BME280;56261;51.580;4.578;2023-09-12T05:54:38;101379.00;;;18.53;100.00
69153;BME280;56261;51.580;4.578;2023-09-12T05:57:03;101381.06;;;18.51;100.00
69153;BME280;56261;51.580;4.578;2023-09-12T05:59:29;101386.69;;;18.56;100.00
69153;BME280;56261;51.580;4.578;2023-09-12T06:01:54;101384.81;;;18.63;100.00
69153;BME280;56261;51.580;4.578;2023-09-12T06:04:20;101385.44;;;18.65;100.00
69153;BME280;56261;51.580;4.578;2023-09-12T06:06:46;101388.34;;;18.57;100.00
69153;BME280;56261;51.580;4.578;2023-09-12T06:09:12;101391.69;;;18.59;100.00
69153;BME280;56261;51.580;4.578;2023-09-12T06:11:38;101394.81;;;18.62;100.00
69153;BME280;56261;51.580;4.578;2023-09-12T06:14:03;101399.34;;;18.62;100.00
69153;BME280;56261;51.580;4.578;2023-09-12T06:16:28;101410.16;;;18.68;100.00
69153;BME280;56261;51.580;4.578;2023-09-12T06:18:55;101406.44;;;18.70;100.00
69153;BME280;56261;51.580;4.578;2023-09-12T06:21:20;101405.16;;;18.72;100.00
69153;BME280;56261;51.580;4.578;2023-09-12T06:24:12;101414.97;;;18.73;100.00
69153;BME280;56261;51.580;4.578;2023-09-12T06:26:39;101405.81;;;18.81;100.00
69153;BME280;56261;51.580;4.578;2023-09-12T06:29:04;101417.06;;;18.78;100.00
69153;BME280;56261;51.580;4.578;2023-09-12T06:31:30;101420.16;;;18.88;100.00
69153;BME280;56261;51.580;4.578;2023-09-12T06:33:56;101417.88;;;18.92;100.00
69153;BME280;56261;51.580;4.578;2023-09-12T06:36:22;101419.31;;;18.94;100.00
69153;BME280;56261;51.580;4.578;2023-09-12T06:38:49;101411.78;;;19.10;100.00
69153;BME280;56261;51.580;4.578;2023-09-12T06:41:14;101420.28;;;19.20;100.00
69153;BME280;56261;51.580;4.578;2023-09-12T06:43:40;101425.03;;;19.24;100.00
69153;BME280;56261;51.580;4.578;2023-09-12T06:46:05;101420.63;;;19.43;100.00
69153;BME280;56261;51.580;4.578;2023-09-12T06:48:30;101417.84;;;19.57;100.00
69153;BME280;56261;51.580;4.578;2023-09-12T06:50:56;101411.34;;;19.64;100.00
69153;BME280;56261;51.580;4.578;2023-09-12T06:53:21;101408.13;;;19.94;100.00
69153;BME280;56261;51.580;4.578;2023-09-12T06:55:46;101411.84;;;19.93;100.00
69153;BME280;56261;51.580;4.578;2023-09-12T06:58:12;101410.09;;;20.12;100.00
69153;BME280;56261;51.580;4.578;2023-09-12T07:00:38;101409.56;;;19.97;100.00
69153;BME280;56261;51.580;4.578;2023-09-12T07:03:03;101412.06;;;19.98;100.00
69153;BME280;56261;51.580;4.578;2023-09-12T07:05:29;101424.03;;;19.77;100.00
69153;BME280;56261;51.580;4.578;2023-09-12T07:07:55;101424.69;;;19.66;100.00
69153;BME280;56261;51.580;4.578;2023-09-12T07:10:20;101418.22;;;20.12;100.00
69153;BME280;56261;51.580;4.578;2023-09-12T07:12:46;101420.47;;;20.40;100.00
69153;BME280;56261;51.580;4.578;2023-09-12T07:15:11;101414.59;;;20.50;100.00
69153;BME280;56261;51.580;4.578;2023-09-12T07:17:37;101407.22;;;20.82;100.00
69153;BME280;56261;51.580;4.578;2023-09-12T07:20:03;101398.13;;;20.95;100.00
69153;BME280;56261;51.580;4.578;2023-09-12T07:22:29;101405.50;;;21.06;100.00
69153;BME280;56261;51.580;4.578;2023-09-12T07:24:55;101416.03;;;20.96;100.00
69153;BME280;56261;51.580;4.578;2023-09-12T07:27:20;101424.78;;;21.35;100.00
69153;BME280;56261;51.580;4.578;2023-09-12T07:29:45;101424.88;;;21.10;100.00
69153;BME280;56261;51.580;4.578;2023-09-12T07:32:11;101423.34;;;20.96;100.00
69153;BME280;56261;51.580;4.578;2023-09-12T07:34:36;101426.66;;;20.79;100.00
69153;BME280;56261;51.580;4.578;2023-09-12T07:37:03;101433.09;;;20.78;100.00
69153;BME280;56261;51.580;4.578;2023-09-12T07:39:28;101434.13;;;20.84;100.00
69153;BME280;56261;51.580;4.578;2023-09-12T07:41:54;101430.00;;;21.18;100.00
69153;BME280;56261;51.580;4.578;2023-09-12T07:44:19;101430.59;;;21.02;100.00
69153;BME280;56261;51.580;4.578;2023-09-12T07:46:46;101428.88;;;21.44;100.00
69153;BME280;56261;51.580;4.578;2023-09-12T07:49:11;101433.78;;;21.54;100.00
69153;BME280;56261;51.580;4.578;2023-09-12T07:51:37;101433.66;;;21.05;100.00
69153;BME280;56261;51.580;4.578;2023-09-12T07:54:02;101447.66;;;20.84;100.00
69153;BME280;56261;51.580;4.578;2023-09-12T07:56:28;101442.53;;;20.94;100.00
69153;BME280;56261;51.580;4.578;2023-09-12T07:58:53;101441.72;;;21.12;100.00
69153;BME280;56261;51.580;4.578;2023-09-12T08:01:18;101446.59;;;21.10;100.00
69153;BME280;56261;51.580;4.578;2023-09-12T08:03:44;101446.25;;;21.00;100.00
69153;BME280;56261;51.580;4.578;2023-09-12T08:06:09;101452.75;;;21.17;100.00
69153;BME280;56261;51.580;4.578;2023-09-12T08:08:35;101448.09;;;21.06;100.00
69153;BME280;56261;51.580;4.578;2023-09-12T08:11:00;101451.53;;;20.94;100.00
69153;BME280;56261;51.580;4.578;2023-09-12T08:13:27;101457.78;;;21.13;100.00
69153;BME280;56261;51.580;4.578;2023-09-12T08:15:53;101458.56;;;21.39;100.00
69153;BME280;56261;51.580;4.578;2023-09-12T08:18:18;101461.97;;;21.71;100.00
69153;BME280;56261;51.580;4.578;2023-09-12T08:20:44;101461.13;;;22.01;100.00
69153;BME280;56261;51.580;4.578;2023-09-12T08:23:09;101453.66;;;21.96;100.00
69153;BME280;56261;51.580;4.578;2023-09-12T08:25:35;101459.75;;;21.25;100.00
69153;BME280;56261;51.580;4.578;2023-09-12T08:28:00;101461.47;;;21.44;100.00
69153;BME280;56261;51.580;4.578;2023-09-12T08:30:26;101470.88;;;21.42;100.00
69153;BME280;56261;51.580;4.578;2023-09-12T08:32:51;101470.63;;;21.25;100.00
69153;BME280;56261;51.580;4.578;2023-09-12T08:35:16;101469.66;;;20.94;100.00
69153;BME280;56261;51.580;4.578;2023-09-12T08:37:42;101468.56;;;21.02;100.00
69153;BME280;56261;51.580;4.578;2023-09-12T08:40:09;101472.03;;;21.09;100.00
69153;BME280;56261;51.580;4.578;2023-09-12T08:42:44;101474.25;;;21.37;100.00
69153;BME280;56261;51.580;4.578;2023-09-12T08:45:18;101469.03;;;21.17;100.00
69153;BME280;56261;51.580;4.578;2023-09-12T08:47:45;101464.19;;;21.01;100.00
69153;BME280;56261;51.580;4.578;2023-09-12T08:50:12;101461.13;;;21.71;100.00
69153;BME280;56261;51.580;4.578;2023-09-12T08:52:39;101452.78;;;21.72;100.00
69153;BME280;56261;51.580;4.578;2023-09-12T08:55:06;101446.38;;;22.27;100.00
69153;BME280;56261;51.580;4.578;2023-09-12T08:57:33;101437.19;;;22.40;100.00
69153;BME280;56261;51.580;4.578;2023-09-12T09:00:01;101443.56;;;22.93;100.00
69153;BME280;56261;51.580;4.578;2023-09-12T09:02:37;101452.34;;;23.18;100.00
69153;BME280;56261;51.580;4.578;2023-09-12T09:05:07;101468.22;;;22.32;100.00
69153;BME280;56261;51.580;4.578;2023-09-12T09:07:38;101475.50;;;21.90;100.00
69153;BME280;56261;51.580;4.578;2023-09-12T09:10:10;101474.41;;;21.79;100.00
69153;BME280;56261;51.580;4.578;2023-09-12T09:12:39;101474.19;;;21.62;100.00
69153;BME280;56261;51.580;4.578;2023-09-12T09:15:40;101489.19;;;21.28;100.00
69153;BME280;56261;51.580;4.578;2023-09-12T09:18:06;101484.44;;;20.98;100.00
69153;BME280;56261;51.580;4.578;2023-09-12T09:20:33;101476.13;;;21.18;100.00
69153;BME280;56261;51.580;4.578;2023-09-12T09:25:31;101456.03;;;22.23;100.00
69153;BME280;56261;51.580;4.578;2023-09-12T09:27:57;101443.59;;;22.81;100.00
69153;BME280;56261;51.580;4.578;2023-09-12T09:30:44;101448.25;;;23.04;100.00
69153;BME280;56261;51.580;4.578;2023-09-12T09:33:11;101438.97;;;23.69;100.00
69153;BME280;56261;51.580;4.578;2023-09-12T09:35:37;101449.75;;;22.65;100.00
69153;BME280;56261;51.580;4.578;2023-09-12T09:38:06;101460.22;;;22.07;100.00
69153;BME280;56261;51.580;4.578;2023-09-12T09:40:32;101467.84;;;21.68;100.00
69153;BME280;56261;51.580;4.578;2023-09-12T09:42:59;101463.25;;;21.99;100.00
69153;BME280;56261;51.580;4.578;2023-09-12T09:45:26;101453.13;;;22.36;100.00
69153;BME280;56261;51.580;4.578;2023-09-12T09:47:51;101447.00;;;22.88;100.00
69153;BME280;56261;51.580;4.578;2023-09-12T09:50:17;101455.03;;;23.42;100.00
69153;BME280;56261;51.580;4.578;2023-09-12T09:52:43;101442.31;;;23.07;100.00
69153;BME280;56261;51.580;4.578;2023-09-12T09:55:23;101456.34;;;22.92;100.00
69153;BME280;56261;51.580;4.578;2023-09-12T09:57:49;101449.50;;;23.25;100.00
69153;BME280;56261;51.580;4.578;2023-09-12T10:00:18;101448.56;;;22.84;100.00
69153;BME280;56261;51.580;4.578;2023-09-12T10:02:45;101456.22;;;22.52;100.00
69153;BME280;56261;51.580;4.578;2023-09-12T10:05:12;101448.28;;;22.38;100.00
69153;BME280;56261;51.580;4.578;2023-09-12T10:07:39;101446.78;;;22.66;100.00
69153;BME280;56261;51.580;4.578;2023-09-12T10:10:05;101448.28;;;23.33;100.00
69153;BME280;56261;51.580;4.578;2023-09-12T10:12:35;101444.97;;;23.42;100.00
69153;BME280;56261;51.580;4.578;2023-09-12T10:15:01;101445.47;;;23.68;100.00
69153;BME280;56261;51.580;4.578;2023-09-12T10:17:35;101440.47;;;23.36;100.00
69153;BME280;56261;51.580;4.578;2023-09-12T10:20:08;101442.63;;;23.34;100.00
69153;BME280;56261;51.580;4.578;2023-09-12T10:22:52;101445.59;;;22.74;100.00
69153;BME280;56261;51.580;4.578;2023-09-12T10:25:21;101437.44;;;22.86;100.00
69153;BME280;56261;51.580;4.578;2023-09-12T10:27:48;101438.72;;;22.95;100.00
69153;BME280;56261;51.580;4.578;2023-09-12T10:30:14;101443.94;;;23.32;100.00
69153;BME280;56261;51.580;4.578;2023-09-12T10:32:41;101437.72;;;23.48;100.00
69153;BME280;56261;51.580;4.578;2023-09-12T10:35:09;101439.53;;;23.42;100.00
69153;BME280;56261;51.580;4.578;2023-09-12T10:37:35;101437.31;;;22.80;100.00
69153;BME280;56261;51.580;4.578;2023-09-12T10:40:04;101431.53;;;22.89;100.00
69153;BME280;56261;51.580;4.578;2023-09-12T10:42:33;101444.81;;;23.09;100.00
69153;BME280;56261;51.580;4.578;2023-09-12T10:45:01;101438.19;;;23.05;100.00
69153;BME280;56261;51.580;4.578;2023-09-12T10:47:29;101440.97;;;22.86;100.00
69153;BME280;56261;51.580;4.578;2023-09-12T10:49:56;101436.03;;;22.83;100.00
69153;BME280;56261;51.580;4.578;2023-09-12T10:52:26;101434.97;;;22.84;100.00
69153;BME280;56261;51.580;4.578;2023-09-12T10:54:51;101430.69;;;22.76;100.00
69153;BME280;56261;51.580;4.578;2023-09-12T10:57:17;101431.31;;;23.02;100.00
69153;BME280;56261;51.580;4.578;2023-09-12T11:02:42;101427.59;;;23.32;100.00
69153;BME280;56261;51.580;4.578;2023-09-12T11:05:37;101417.00;;;23.88;100.00
69153;BME280;56261;51.580;4.578;2023-09-12T11:08:03;101410.44;;;24.17;100.00
69153;BME280;56261;51.580;4.578;2023-09-12T11:10:31;101406.97;;;24.39;100.00
69153;BME280;56261;51.580;4.578;2023-09-12T11:12:57;101416.66;;;24.30;100.00
69153;BME280;56261;51.580;4.578;2023-09-12T11:15:25;101419.91;;;24.60;100.00
69153;BME280;56261;51.580;4.578;2023-09-12T11:18:06;101425.75;;;24.52;100.00
69153;BME280;56261;51.580;4.578;2023-09-12T11:20:52;101426.66;;;24.58;100.00
69153;BME280;56261;51.580;4.578;2023-09-12T11:23:18;101440.50;;;24.39;100.00
69153;BME280;56261;51.580;4.578;2023-09-12T11:25:44;101422.34;;;24.79;100.00
69153;BME280;56261;51.580;4.578;2023-09-12T11:28:10;101426.69;;;24.97;100.00
69153;BME280;56261;51.580;4.578;2023-09-12T11:30:35;101420.34;;;25.13;100.00
69153;BME280;56261;51.580;4.578;2023-09-12T11:33:04;101428.28;;;24.76;100.00
69153;BME280;56261;51.580;4.578;2023-09-12T11:35:36;101425.53;;;24.54;100.00
69153;BME280;56261;51.580;4.578;2023-09-12T11:38:01;101431.69;;;24.83;100.00
69153;BME280;56261;51.580;4.578;2023-09-12T11:43:00;101427.28;;;24.99;100.00
69153;BME280;56261;51.580;4.578;2023-09-12T11:45:25;101428.88;;;24.27;100.00
69153;BME280;56261;51.580;4.578;2023-09-12T11:47:51;101426.41;;;24.59;100.00
69153;BME280;56261;51.580;4.578;2023-09-12T11:50:34;101433.75;;;24.42;100.00
69153;BME280;56261;51.580;4.578;2023-09-12T11:53:06;101426.16;;;24.27;100.00
69153;BME280;56261;51.580;4.578;2023-09-12T11:55:41;101426.31;;;24.71;100.00
69153;BME280;56261;51.580;4.578;2023-09-12T11:58:07;101432.66;;;24.26;100.00
69153;BME280;56261;51.580;4.578;2023-09-12T12:00:33;101437.88;;;24.28;100.00
69153;BME280;56261;51.580;4.578;2023-09-12T12:02:58;101438.94;;;24.27;100.00
69153;BME280;56261;51.580;4.578;2023-09-12T12:05:24;101431.78;;;23.92;100.00
69153;BME280;56261;51.580;4.578;2023-09-12T12:07:49;101442.63;;;24.03;100.00
69153;BME280;56261;51.580;4.578;2023-09-12T12:10:18;101439.97;;;24.09;100.00
69153;BME280;56261;51.580;4.578;2023-09-12T12:12:45;101434.50;;;24.20;100.00
69153;BME280;56261;51.580;4.578;2023-09-12T12:15:13;101428.78;;;24.39;100.00
69153;BME280;56261;51.580;4.578;2023-09-12T12:17:42;101429.72;;;24.61;100.00
69153;BME280;56261;51.580;4.578;2023-09-12T12:20:11;101409.94;;;24.71;100.00
69153;BME280;56261;51.580;4.578;2023-09-12T12:22:37;101417.53;;;24.86;100.00
69153;BME280;56261;51.580;4.578;2023-09-12T12:25:11;101423.38;;;24.95;100.00
69153;BME280;56261;51.580;4.578;2023-09-12T12:27:40;101415.06;;;25.23;100.00
69153;BME280;56261;51.580;4.578;2023-09-12T12:30:10;101412.94;;;24.70;100.00
69153;BME280;56261;51.580;4.578;2023-09-12T12:32:40;101417.38;;;24.42;100.00
69153;BME280;56261;51.580;4.578;2023-09-12T12:35:06;101405.91;;;24.23;100.00
69153;BME280;56261;51.580;4.578;2023-09-12T12:37:32;101416.56;;;24.41;100.00
69153;BME280;56261;51.580;4.578;2023-09-12T12:39:59;101419.31;;;24.58;100.00
69153;BME280;56261;51.580;4.578;2023-09-12T12:42:32;101410.91;;;24.99;100.00
69153;BME280;56261;51.580;4.578;2023-09-12T12:44:58;101406.28;;;25.43;100.00
69153;BME280;56261;51.580;4.578;2023-09-12T12:47:23;101409.22;;;25.37;100.00
69153;BME280;56261;51.580;4.578;2023-09-12T12:49:52;101405.25;;;25.05;100.00